createdAt,value
2022-10-19T00:01:21.254Z,22.13
2022-10-19T00:03:52.208Z,21.80
2022-10-19T00:06:26.664Z,21.13
2022-10-19T00:08:56.733Z,20.00
2022-10-19T00:11:24.954Z,19.02
2022-10-19T00:13:53.382Z,21.08
2022-10-19T00:16:21.658Z,19.25
2022-10-19T00:18:49.191Z,21.85
2022-10-19T00:21:18.930Z,22.70
2022-10-19T00:23:46.717Z,18.98
2022-10-19T00:26:14.396Z,21.35
2022-10-19T00:28:42.894Z,19.33
2022-10-19T00:31:16.104Z,21.63
2022-10-19T00:33:46.890Z,22.08
2022-10-19T00:36:20.439Z,29.75
2022-10-19T00:38:48.534Z,21.83
2022-10-19T00:41:17.676Z,22.48
2022-10-19T00:44:01.492Z,21.77
2022-10-19T00:46:32.604Z,25.70
2022-10-19T00:49:14.123Z,19.95
2022-10-19T00:51:46.215Z,22.58
2022-10-19T00:54:14.316Z,21.40
2022-10-19T00:56:44.233Z,18.83
2022-10-19T00:59:14.970Z,24.45
2022-10-19T01:01:44.230Z,20.83
2022-10-19T01:04:12.695Z,21.45
2022-10-19T01:06:41.677Z,22.83
2022-10-19T01:09:09.652Z,20.52
2022-10-19T01:11:51.533Z,18.83
2022-10-19T01:14:40.379Z,22.23
2022-10-19T01:17:07.815Z,21.70
2022-10-19T01:20:13.120Z,19.90
2022-10-19T01:23:19.301Z,22.17
2022-10-19T01:26:19.434Z,21.85
2022-10-19T01:29:19.150Z,21.30
2022-10-19T01:31:46.593Z,20.95
2022-10-19T01:34:38.767Z,18.30
2022-10-19T01:37:27.124Z,20.95
2022-10-19T01:40:06.930Z,21.83
2022-10-19T01:45:28.818Z,20.02
2022-10-19T01:48:03.786Z,21.77
2022-10-19T01:50:50.682Z,20.05
2022-10-19T01:53:19.885Z,20.58
2022-10-19T01:55:51.299Z,19.45
2022-10-19T01:58:24.951Z,24.70
2022-10-19T02:00:54.409Z,21.85
2022-10-19T02:03:24.341Z,21.80
2022-10-19T02:05:53.497Z,23.58
2022-10-19T02:08:30.890Z,23.98
2022-10-19T02:10:59.898Z,20.42
2022-10-19T02:13:28.712Z,19.67
2022-10-19T02:15:59.742Z,21.92
2022-10-19T02:18:32.937Z,22.48
2022-10-19T02:21:05.535Z,22.63
2022-10-19T02:23:33.252Z,23.67
2022-10-19T02:26:00.883Z,24.40
2022-10-19T02:28:30.034Z,26.38
2022-10-19T02:30:58.799Z,25.05
2022-10-19T02:33:27.524Z,21.98
2022-10-19T02:35:56.265Z,25.05
2022-10-19T02:38:24.942Z,24.73
2022-10-19T02:40:56.832Z,24.30
2022-10-19T02:43:26.714Z,30.27
2022-10-19T02:46:04.065Z,23.05
2022-10-19T02:48:34.493Z,23.10
2022-10-19T02:51:02.751Z,32.85
2022-10-19T02:53:30.341Z,26.10
2022-10-19T02:55:57.887Z,32.97
2022-10-19T02:58:25.459Z,29.10
2022-10-19T03:00:52.974Z,27.10
2022-10-19T03:03:20.525Z,39.75
2022-10-19T03:05:48.092Z,25.92
2022-10-19T03:08:15.834Z,22.20
2022-10-19T03:10:43.363Z,35.53
2022-10-19T03:13:10.842Z,26.27
2022-10-19T03:15:38.418Z,26.65
2022-10-19T03:18:06.041Z,38.80
2022-10-19T03:20:33.591Z,33.33
2022-10-19T03:23:01.315Z,24.85
2022-10-19T03:25:28.772Z,24.33
2022-10-19T03:27:56.313Z,26.80
2022-10-19T03:30:23.874Z,28.48
2022-10-19T03:32:51.369Z,36.78
2022-10-19T03:35:19.304Z,30.85
2022-10-19T03:37:46.903Z,29.17
2022-10-19T03:40:15.490Z,27.50
2022-10-19T03:42:42.929Z,32.15
2022-10-19T03:45:10.685Z,27.73
2022-10-19T03:47:38.137Z,29.20
2022-10-19T03:50:14.055Z,34.10
2022-10-19T03:52:41.734Z,25.60
2022-10-19T03:55:10.425Z,23.65
2022-10-19T03:57:38.186Z,28.13
2022-10-19T04:00:06.178Z,25.33
2022-10-19T04:02:39.479Z,26.40
2022-10-19T04:05:07.653Z,23.27
2022-10-19T04:07:35.294Z,26.50
2022-10-19T04:10:04.506Z,27.42
2022-10-19T04:12:34.200Z,29.60
2022-10-19T04:15:01.821Z,24.33
2022-10-19T04:17:30.074Z,28.98
2022-10-19T04:20:01.088Z,29.73
2022-10-19T04:22:28.951Z,29.63
2022-10-19T04:24:56.421Z,31.52
2022-10-19T04:27:23.955Z,26.27
2022-10-19T04:29:52.222Z,28.83
2022-10-19T04:32:19.722Z,31.42
2022-10-19T04:34:47.123Z,27.98
2022-10-19T04:37:14.584Z,28.25
2022-10-19T04:39:45.284Z,29.30
2022-10-19T04:42:12.808Z,29.15
2022-10-19T04:44:40.413Z,28.77
2022-10-19T04:47:07.851Z,33.17
2022-10-19T04:49:35.615Z,30.55
2022-10-19T04:52:03.425Z,32.70
2022-10-19T04:54:31.085Z,32.60
2022-10-19T04:56:58.651Z,34.13
2022-10-19T04:59:26.277Z,31.15
2022-10-19T05:01:53.834Z,31.83
2022-10-19T05:04:21.675Z,42.17
2022-10-19T05:06:49.128Z,35.15
2022-10-19T05:09:17.277Z,39.00
2022-10-19T05:11:44.830Z,38.35
2022-10-19T05:14:12.304Z,39.30
2022-10-19T05:16:39.878Z,38.20
2022-10-19T05:19:07.683Z,31.45
2022-10-19T05:21:35.340Z,34.42
2022-10-19T05:24:02.985Z,33.95
2022-10-19T05:26:30.771Z,38.05
2022-10-19T05:29:04.815Z,58.97
2022-10-19T05:31:33.943Z,46.10
2022-10-19T05:34:03.144Z,42.50
2022-10-19T05:36:36.829Z,43.58
2022-10-19T05:39:13.158Z,45.53
2022-10-19T05:41:46.032Z,41.80
2022-10-19T05:44:19.163Z,37.78
2022-10-19T05:46:47.673Z,31.42
2022-10-19T05:49:18.480Z,23.92
2022-10-19T05:51:46.130Z,21.45
2022-10-19T05:54:14.473Z,18.92
2022-10-19T05:56:43.376Z,17.67
2022-10-19T05:59:15.969Z,19.30
2022-10-19T06:01:43.988Z,18.10
2022-10-19T06:04:14.088Z,16.25
2022-10-19T06:06:42.952Z,19.13
2022-10-19T06:09:12.331Z,14.20
2022-10-19T06:11:41.435Z,13.68
2022-10-19T06:14:13.417Z,15.05
2022-10-19T06:16:41.279Z,14.45
2022-10-19T06:19:08.882Z,15.13
2022-10-19T06:21:37.268Z,12.57
2022-10-19T06:24:06.657Z,15.57
2022-10-19T06:26:35.409Z,15.45
2022-10-19T06:29:04.957Z,15.10
2022-10-19T06:31:35.592Z,19.05
2022-10-19T06:34:03.842Z,15.77
2022-10-19T06:36:32.363Z,13.38
2022-10-19T06:39:01.783Z,17.13
2022-10-19T06:41:31.358Z,17.35
2022-10-19T06:44:12.758Z,15.90
2022-10-19T06:46:40.225Z,15.98
2022-10-19T06:49:07.752Z,13.38
2022-10-19T06:51:35.288Z,15.13
2022-10-19T06:54:03.025Z,13.55
2022-10-19T06:56:30.594Z,14.57
2022-10-19T06:58:58.850Z,15.90
2022-10-19T07:01:26.850Z,13.68
2022-10-19T07:03:55.343Z,13.32
2022-10-19T07:06:24.015Z,11.10
2022-10-19T07:08:52.586Z,13.65
2022-10-19T07:11:22.457Z,13.32
2022-10-19T07:13:52.423Z,12.73
2022-10-19T07:16:21.307Z,10.40
2022-10-19T07:18:51.905Z,12.77
2022-10-19T07:21:21.616Z,12.18
2022-10-19T07:23:49.492Z,9.73
2022-10-19T07:26:23.746Z,10.23
2022-10-19T07:28:51.580Z,9.93
2022-10-19T07:31:21.012Z,9.95
2022-10-19T07:33:59.609Z,9.63
2022-10-19T07:36:30.316Z,10.90
2022-10-19T07:38:58.316Z,11.52
2022-10-19T07:41:27.004Z,10.52
2022-10-19T07:43:54.985Z,11.13
2022-10-19T07:46:25.538Z,8.27
2022-10-19T07:48:53.639Z,9.68
2022-10-19T07:51:22.744Z,9.98
2022-10-19T07:53:50.330Z,11.85
2022-10-19T07:56:25.395Z,9.75
2022-10-19T07:58:55.739Z,9.25
2022-10-19T08:01:26.599Z,9.35
2022-10-19T08:06:43.279Z,8.93
2022-10-19T08:09:15.649Z,9.82
2022-10-19T08:11:50.573Z,10.10
2022-10-19T08:14:18.090Z,10.27
2022-10-19T08:16:45.567Z,11.07
2022-10-19T08:19:15.789Z,13.88
2022-10-19T08:21:46.190Z,10.48
2022-10-19T08:24:15.867Z,8.68
2022-10-19T08:26:43.756Z,10.20
2022-10-19T08:29:13.124Z,10.07
2022-10-19T08:31:42.283Z,9.35
2022-10-19T08:34:13.319Z,10.00
2022-10-19T08:36:44.050Z,9.50
2022-10-19T08:39:13.182Z,9.50
2022-10-19T08:41:40.631Z,7.13
2022-10-19T08:44:42.127Z,9.27
2022-10-19T08:47:31.361Z,8.88
2022-10-19T08:50:00.231Z,10.82
2022-10-19T08:52:34.735Z,11.02
2022-10-19T08:55:09.111Z,8.55
2022-10-19T08:58:00.954Z,8.88
2022-10-19T09:00:54.345Z,9.35
2022-10-19T09:03:37.713Z,11.52
2022-10-19T09:06:41.878Z,6.10
2022-10-19T09:09:13.351Z,9.10
2022-10-19T09:11:46.211Z,7.03
2022-10-19T09:14:22.781Z,5.43
2022-10-19T09:16:50.708Z,7.95
2022-10-19T09:19:25.766Z,7.32
2022-10-19T09:21:58.069Z,7.68
2022-10-19T09:24:50.583Z,9.45
2022-10-19T09:27:23.367Z,8.05
2022-10-19T09:30:00.784Z,10.68
2022-10-19T09:32:38.705Z,5.68
2022-10-19T09:35:30.523Z,8.30
2022-10-19T09:37:58.331Z,6.78
2022-10-19T09:40:29.120Z,8.45
2022-10-19T09:42:58.361Z,8.75
2022-10-19T09:45:41.122Z,7.30
2022-10-19T09:48:39.620Z,7.22
2022-10-19T09:51:18.105Z,6.72
2022-10-19T09:54:01.808Z,4.38
2022-10-19T09:56:40.751Z,10.32
2022-10-19T09:59:23.473Z,10.05
2022-10-19T10:02:13.771Z,6.38
2022-10-19T10:04:41.184Z,4.97
2022-10-19T10:07:16.305Z,4.05
2022-10-19T10:09:44.997Z,8.65
2022-10-19T10:12:15.373Z,4.55
2022-10-19T10:14:44.408Z,7.43
2022-10-19T10:17:20.479Z,7.53
2022-10-19T10:19:51.393Z,5.40
2022-10-19T10:22:57.299Z,7.93
2022-10-19T10:25:33.922Z,4.10
2022-10-19T10:28:16.928Z,7.80
2022-10-19T10:33:27.369Z,5.10
2022-10-19T10:36:11.350Z,6.25
2022-10-19T10:38:47.158Z,4.40
2022-10-19T10:41:17.775Z,4.57
2022-10-19T10:43:58.583Z,3.75
2022-10-19T10:46:34.482Z,5.32
2022-10-19T10:49:08.273Z,5.78
2022-10-19T10:51:49.216Z,3.17
2022-10-19T10:54:38.238Z,3.40
2022-10-19T10:57:15.889Z,3.72
2022-10-19T10:59:54.231Z,2.80
2022-10-19T11:03:13.493Z,4.03
2022-10-19T11:05:46.682Z,4.32
2022-10-19T11:08:25.307Z,2.60
2022-10-19T11:11:01.856Z,6.72
2022-10-19T11:13:50.274Z,2.58
2022-10-19T11:16:23.928Z,5.20
2022-10-19T11:18:57.018Z,4.50
2022-10-19T11:21:31.127Z,8.90
2022-10-19T11:24:13.519Z,5.97
2022-10-19T11:26:55.922Z,4.85
2022-10-19T11:29:46.333Z,5.13
2022-10-19T11:32:46.026Z,5.60
2022-10-19T11:35:19.464Z,4.15
2022-10-19T11:40:54.190Z,3.08
2022-10-19T11:43:39.568Z,3.40
2022-10-19T11:46:15.872Z,3.60
2022-10-19T11:49:07.542Z,5.60
2022-10-19T11:51:49.739Z,3.22
2022-10-19T11:54:32.258Z,6.07
2022-10-19T11:57:11.685Z,4.57
2022-10-19T12:00:37.773Z,6.78
2022-10-19T12:03:24.561Z,5.03
2022-10-19T12:06:22.872Z,3.70
2022-10-19T12:09:08.615Z,5.43
2022-10-19T12:12:02.001Z,6.38
2022-10-19T12:14:38.810Z,3.85
2022-10-19T12:19:54.676Z,5.20
2022-10-19T12:22:28.377Z,3.40
2022-10-19T12:24:59.187Z,4.32
2022-10-19T12:27:38.750Z,5.95
2022-10-19T12:30:17.303Z,5.38
2022-10-19T12:32:55.241Z,4.70
2022-10-19T12:35:28.713Z,7.70
2022-10-19T12:38:30.448Z,4.68
2022-10-19T12:41:14.276Z,8.18
2022-10-19T12:43:55.810Z,7.00
2022-10-19T12:46:37.514Z,4.65
2022-10-19T12:49:26.577Z,4.53
2022-10-19T12:51:55.986Z,3.67
2022-10-19T12:54:30.464Z,5.30
2022-10-19T12:57:00.394Z,5.20
2022-10-19T12:59:37.140Z,3.22
2022-10-19T13:02:29.106Z,4.00
2022-10-19T13:04:56.839Z,5.05
2022-10-19T13:07:26.493Z,6.50
2022-10-19T13:10:02.554Z,4.18
2022-10-19T13:12:43.670Z,3.88
2022-10-19T13:15:35.780Z,11.20
2022-10-19T13:18:16.868Z,7.85
2022-10-19T13:20:53.260Z,4.82
2022-10-19T13:23:26.876Z,4.47
2022-10-19T13:28:55.596Z,11.52
2022-10-19T13:31:29.072Z,5.40
2022-10-19T13:33:57.759Z,4.90
2022-10-19T13:36:26.016Z,8.05
2022-10-19T13:38:59.259Z,10.93
2022-10-19T13:41:44.587Z,8.45
2022-10-19T13:44:26.308Z,7.22
2022-10-19T13:46:59.527Z,7.93
2022-10-19T13:49:57.305Z,9.85
2022-10-19T13:53:19.203Z,9.20
2022-10-19T13:56:23.923Z,8.57
2022-10-19T13:59:27.888Z,10.15
2022-10-19T14:02:33.457Z,9.90
2022-10-19T14:05:10.638Z,9.85
2022-10-19T14:07:57.098Z,11.25
2022-10-19T14:10:32.773Z,12.23
2022-10-19T14:13:02.230Z,11.70
2022-10-19T14:15:33.583Z,10.63
2022-10-19T14:18:03.815Z,12.75
2022-10-19T14:20:36.735Z,11.50
2022-10-19T14:23:23.391Z,10.15
2022-10-19T14:25:53.460Z,10.93
2022-10-19T14:28:22.903Z,10.70
2022-10-19T14:31:20.761Z,11.68
2022-10-19T14:33:52.172Z,12.02
2022-10-19T14:36:28.178Z,10.88
2022-10-19T14:38:56.455Z,11.63
2022-10-19T14:41:26.967Z,7.63
2022-10-19T14:43:58.615Z,11.73
2022-10-19T14:46:31.792Z,12.00
2022-10-19T14:49:04.646Z,10.68
2022-10-19T14:51:52.809Z,15.85
2022-10-19T14:54:26.606Z,10.55
2022-10-19T14:56:59.538Z,10.68
2022-10-19T14:59:34.734Z,17.75
2022-10-19T15:02:11.593Z,9.77
2022-10-19T15:04:39.475Z,12.35
2022-10-19T15:07:18.259Z,19.75
2022-10-19T15:09:56.488Z,11.25
2022-10-19T15:12:33.838Z,13.38
2022-10-19T15:15:09.855Z,12.52
2022-10-19T15:17:50.553Z,10.90
2022-10-19T15:20:31.350Z,12.20
2022-10-19T15:23:02.066Z,9.98
2022-10-19T15:25:36.822Z,10.43
2022-10-19T15:28:31.937Z,12.45
2022-10-19T15:31:04.889Z,18.05
2022-10-19T15:33:38.894Z,14.15
2022-10-19T15:36:08.671Z,14.90
2022-10-19T15:38:36.353Z,12.30
2022-10-19T15:41:05.085Z,12.63
2022-10-19T15:43:35.179Z,14.75
2022-10-19T15:46:05.471Z,11.27
2022-10-19T15:48:44.443Z,15.15
2022-10-19T15:51:27.200Z,12.15
2022-10-19T15:54:00.345Z,16.25
2022-10-19T15:56:32.252Z,11.27
2022-10-19T15:59:01.832Z,11.57
2022-10-19T16:01:31.767Z,13.75
2022-10-19T16:04:00.050Z,9.23
2022-10-19T16:06:33.382Z,12.80
2022-10-19T16:09:02.149Z,12.02
2022-10-19T16:11:31.719Z,11.65
2022-10-19T16:13:59.482Z,11.25
2022-10-19T16:16:30.460Z,13.65
2022-10-19T16:18:59.117Z,15.52
2022-10-19T16:21:33.873Z,11.45
2022-10-19T16:24:01.890Z,11.13
2022-10-19T16:26:29.480Z,12.27
2022-10-19T16:28:57.527Z,17.42
2022-10-19T16:31:25.255Z,11.93
2022-10-19T16:33:52.998Z,16.45
2022-10-19T16:36:20.515Z,19.67
2022-10-19T16:38:48.571Z,11.05
2022-10-19T16:41:17.264Z,13.95
2022-10-19T16:43:45.055Z,15.57
2022-10-19T16:46:12.686Z,12.38
2022-10-19T16:48:40.264Z,11.20
2022-10-19T16:51:10.304Z,10.55
2022-10-19T16:53:39.928Z,12.00
2022-10-19T16:56:10.317Z,12.48
2022-10-19T16:58:40.999Z,12.82
2022-10-19T17:01:17.182Z,11.75
2022-10-19T17:03:45.792Z,13.20
2022-10-19T17:06:15.576Z,12.77
2022-10-19T17:09:36.624Z,11.23
2022-10-19T17:11:37.612Z,12.13
2022-10-19T17:14:09.061Z,13.02
2022-10-19T17:16:37.814Z,11.93
2022-10-19T17:19:07.048Z,11.30
2022-10-19T17:21:40.165Z,12.77
2022-10-19T17:24:15.667Z,10.57
2022-10-19T17:26:46.862Z,10.52
2022-10-19T17:29:17.187Z,14.40
2022-10-19T17:31:45.313Z,17.60
2022-10-19T17:34:13.270Z,13.05
2022-10-19T17:36:44.711Z,11.90
2022-10-19T17:39:18.884Z,12.40
2022-10-19T17:41:48.167Z,10.95
2022-10-19T17:44:17.162Z,12.23
2022-10-19T17:46:45.071Z,12.02
2022-10-19T17:49:13.373Z,13.38
2022-10-19T17:51:41.111Z,10.20
2022-10-19T17:54:12.505Z,12.13
2022-10-19T17:56:41.164Z,11.38
2022-10-19T17:59:09.297Z,14.95
2022-10-19T18:01:37.402Z,20.20
2022-10-19T18:04:05.885Z,13.68
2022-10-19T18:06:36.836Z,12.73
2022-10-19T18:09:06.936Z,11.02
2022-10-19T18:11:41.955Z,16.63
2022-10-19T18:14:11.694Z,13.05
2022-10-19T18:16:45.633Z,12.52
2022-10-19T18:19:15.120Z,14.52
2022-10-19T18:21:44.401Z,14.95
2022-10-19T18:24:19.137Z,12.52
2022-10-19T18:26:50.838Z,13.00
2022-10-19T18:29:24.210Z,12.50
2022-10-19T18:31:52.706Z,13.80
2022-10-19T18:34:23.613Z,15.70
2022-10-19T18:36:52.639Z,13.13
2022-10-19T18:39:20.748Z,14.45
2022-10-19T18:41:54.561Z,13.50
2022-10-19T18:44:26.538Z,18.05
2022-10-19T18:46:57.099Z,20.13
2022-10-19T18:49:25.616Z,15.00
2022-10-19T18:51:55.432Z,18.08
2022-10-19T18:54:27.847Z,18.02
2022-10-19T18:56:55.733Z,16.38
2022-10-19T18:59:24.060Z,18.67
2022-10-19T19:01:52.187Z,15.82
2022-10-19T19:04:20.188Z,16.52
2022-10-19T19:06:47.958Z,21.33
2022-10-19T19:09:17.437Z,30.75
2022-10-19T19:11:45.288Z,19.42
2022-10-19T19:14:16.085Z,23.80
2022-10-19T19:16:45.059Z,17.73
2022-10-19T19:19:14.139Z,18.50
2022-10-19T19:21:44.430Z,20.23
2022-10-19T19:24:19.255Z,27.08
2022-10-19T19:26:51.102Z,20.27
2022-10-19T19:29:20.161Z,25.13
2022-10-19T19:31:48.320Z,24.67
2022-10-19T19:34:16.861Z,25.70
2022-10-19T19:36:48.187Z,20.42
2022-10-19T19:39:19.401Z,13.80
2022-10-19T19:41:48.926Z,13.68
2022-10-19T19:44:17.516Z,14.82
2022-10-19T19:46:45.480Z,14.57
2022-10-19T19:49:13.973Z,14.88
2022-10-19T19:51:41.927Z,16.95
2022-10-19T19:54:09.721Z,14.60
2022-10-19T19:56:40.034Z,15.55
2022-10-19T19:59:10.545Z,15.25
2022-10-19T20:01:39.493Z,32.65
2022-10-19T20:04:07.377Z,22.30
2022-10-19T20:06:36.652Z,22.30
2022-10-19T20:09:06.222Z,21.50
2022-10-19T20:11:36.177Z,16.85
2022-10-19T20:14:07.630Z,18.20
2022-10-19T20:16:36.611Z,21.77
2022-10-19T20:19:09.613Z,21.85
2022-10-19T20:21:38.340Z,18.85
2022-10-19T20:24:06.627Z,14.52
2022-10-19T20:26:34.895Z,13.60
2022-10-19T20:29:05.108Z,14.63
2022-10-19T20:31:39.172Z,16.13
2022-10-19T20:34:14.817Z,14.40
2022-10-19T20:36:43.227Z,16.00
2022-10-19T20:39:12.171Z,13.73
2022-10-19T20:41:39.854Z,16.40
2022-10-19T20:44:07.438Z,16.13
2022-10-19T20:46:36.938Z,18.23
2022-10-19T20:49:04.996Z,17.90
2022-10-19T20:51:36.780Z,20.58
2022-10-19T20:54:07.500Z,18.20
2022-10-19T20:56:37.065Z,22.85
2022-10-19T20:59:07.408Z,21.65
2022-10-19T21:01:37.757Z,21.75
2022-10-19T21:04:07.096Z,22.52
2022-10-19T21:06:38.241Z,162.93
2022-10-19T21:09:06.346Z,106.88
2022-10-19T21:11:36.372Z,88.85
2022-10-19T21:14:14.010Z,40.55
2022-10-19T21:16:42.063Z,34.05
2022-10-19T21:19:16.624Z,40.67
2022-10-19T21:24:17.007Z,23.10
2022-10-19T21:26:44.764Z,23.33
2022-10-19T21:29:14.148Z,30.02
2022-10-19T21:31:46.434Z,19.63
2022-10-19T21:34:18.893Z,21.77
2022-10-19T21:36:47.074Z,19.08
2022-10-19T21:39:14.761Z,21.80
2022-10-19T21:41:42.225Z,29.00
2022-10-19T21:44:10.069Z,19.50
2022-10-19T21:46:37.606Z,19.58
2022-10-19T21:49:05.057Z,21.02
2022-10-19T21:51:45.025Z,19.40
2022-10-19T21:54:15.433Z,14.65
2022-10-19T21:56:43.469Z,14.02
2022-10-19T21:59:12.174Z,19.63
2022-10-19T22:01:41.582Z,18.35
2022-10-19T22:04:13.252Z,19.75
2022-10-19T22:06:41.614Z,15.80
2022-10-19T22:09:12.438Z,18.83
2022-10-19T22:11:40.072Z,16.15
2022-10-19T22:14:07.548Z,20.52
2022-10-19T22:16:36.869Z,18.50
2022-10-19T22:19:06.055Z,19.13
2022-10-19T22:21:34.958Z,16.95
2022-10-19T22:24:06.607Z,16.38
2022-10-19T22:26:38.003Z,17.73
2022-10-19T22:29:07.396Z,16.95
2022-10-19T22:31:35.992Z,18.73
2022-10-19T22:34:13.797Z,18.25
2022-10-19T22:36:41.408Z,17.60
2022-10-19T22:39:11.221Z,17.02
2022-10-19T22:41:38.696Z,15.48
2022-10-19T22:44:06.191Z,16.52
2022-10-19T22:46:33.768Z,16.15
2022-10-19T22:49:01.422Z,15.15
2022-10-19T22:51:29.042Z,17.02
2022-10-19T22:53:56.500Z,14.88
2022-10-19T22:56:23.957Z,19.10
2022-10-19T22:58:51.451Z,19.63
2022-10-19T23:01:19.527Z,14.70
2022-10-19T23:03:47.063Z,17.92
2022-10-19T23:06:15.532Z,19.30
2022-10-19T23:08:44.343Z,15.23
2022-10-19T23:11:12.513Z,17.40
2022-10-19T23:13:40.229Z,15.88
2022-10-19T23:16:09.354Z,17.17
2022-10-19T23:18:39.243Z,16.70
2022-10-19T23:21:11.843Z,17.00
2022-10-19T23:23:40.156Z,16.75
2022-10-19T23:26:16.590Z,16.48
2022-10-19T23:28:47.005Z,15.05
2022-10-19T23:31:17.014Z,17.00
2022-10-19T23:33:44.985Z,15.50
2022-10-19T23:36:15.954Z,15.80
2022-10-19T23:38:45.549Z,15.20
2022-10-19T23:41:13.900Z,15.73
2022-10-19T23:43:41.865Z,15.60
2022-10-19T23:46:09.689Z,18.38
2022-10-19T23:48:37.463Z,19.98
2022-10-19T23:51:16.722Z,15.90
2022-10-19T23:53:46.087Z,14.05
2022-10-19T23:56:15.271Z,19.83
2022-10-19T23:58:43.666Z,17.30
